Stanley Mission, Canada
Current Conditions -  °F | °C
As of 7:00 PM on Tuesday 25 Nov 2014 (Local Time) from CYVC Reporting Station
Clear Clear  
Wind Chill: -31°   Ceiling: Unl
Heat Index: -18°   Visibility: 15mi
Dew Point: -22°   Wind: 5mph
Humidity: 84%   Direction: 250°WSW
Pressure: 30.28"   Gusts: NA
Location:  55.42°N, 104.56°W
Report Text: CYVC 260100Z 25004KT 15SM SKC M28/M30 A3028 RMK SLP302
Loading
Personal Weather Stations






























Interactive Weather Map New forecast layout! Learn more

10-Day Weather Forecast

Advertisements
Track Severe Weather on mobile